createdAt,value
2018-09-06T00:02:47.180Z,17.60
2018-09-06T00:07:50.348Z,17.50
2018-09-06T00:12:53.428Z,17.60
2018-09-06T00:17:56.482Z,17.70
2018-09-06T00:22:59.584Z,17.80
2018-09-06T00:28:03.462Z,17.90
2018-09-06T00:33:06.731Z,17.80
2018-09-06T00:38:09.737Z,17.80
2018-09-06T00:43:13.284Z,17.80
2018-09-06T00:48:16.325Z,17.80
2018-09-06T00:53:19.385Z,17.60
2018-09-06T00:58:22.407Z,17.60
2018-09-06T01:03:25.590Z,17.50
2018-09-06T01:08:28.797Z,17.50
2018-09-06T01:13:31.811Z,17.60
2018-09-06T01:18:35.080Z,17.50
2018-09-06T01:23:38.740Z,17.50
2018-09-06T01:28:41.937Z,17.50
2018-09-06T01:33:44.935Z,17.40
2018-09-06T01:38:48.029Z,17.50
2018-09-06T01:43:51.267Z,17.50
2018-09-06T01:48:54.289Z,17.40
2018-09-06T01:53:57.328Z,17.30
2018-09-06T01:59:00.395Z,17.20
2018-09-06T02:04:04.960Z,17.10
2018-09-06T02:09:08.940Z,16.90
2018-09-06T02:14:12.199Z,16.90
2018-09-06T02:19:15.226Z,16.70
2018-09-06T02:24:18.468Z,16.70
2018-09-06T02:29:21.632Z,16.70
2018-09-06T02:34:24.589Z,16.70
2018-09-06T02:39:27.575Z,16.90
2018-09-06T02:44:30.664Z,16.90
2018-09-06T02:49:39.344Z,16.90
2018-09-06T02:54:42.437Z,17.00
2018-09-06T02:59:46.433Z,17.00
2018-09-06T03:04:49.438Z,17.00
2018-09-06T03:09:52.572Z,17.10
2018-09-06T03:14:55.602Z,17.10
2018-09-06T03:19:58.622Z,17.10
2018-09-06T03:25:02.743Z,17.10
2018-09-06T03:30:06.643Z,17.00
2018-09-06T03:35:09.964Z,17.00
2018-09-06T03:40:13.092Z,16.90
2018-09-06T03:45:16.234Z,16.80
2018-09-06T03:50:19.261Z,16.70
2018-09-06T03:55:22.307Z,16.70
2018-09-06T04:00:25.796Z,16.60
2018-09-06T04:05:28.801Z,16.50
2018-09-06T04:10:31.777Z,16.50
2018-09-06T04:15:34.760Z,16.50
2018-09-06T04:20:37.739Z,16.60
2018-09-06T04:25:41.036Z,16.60
2018-09-06T04:30:44.167Z,16.50
2018-09-06T04:35:47.169Z,16.50
2018-09-06T04:40:50.128Z,16.50
2018-09-06T04:45:53.117Z,16.60
2018-09-06T04:50:56.131Z,16.40
2018-09-06T04:55:59.348Z,16.40
2018-09-06T05:01:03.376Z,16.30
2018-09-06T05:06:06.380Z,16.40
2018-09-06T05:11:09.404Z,16.50
2018-09-06T05:16:12.400Z,16.60
2018-09-06T05:21:15.400Z,16.80
2018-09-06T05:26:18.590Z,17.10
2018-09-06T05:31:21.684Z,17.40
2018-09-06T05:36:24.888Z,17.40
2018-09-06T05:41:28.074Z,18.10
2018-09-06T05:46:31.168Z,18.10
2018-09-06T05:51:34.852Z,18.50
2018-09-06T05:56:38.217Z,19.20
2018-09-06T06:01:41.277Z,19.50
2018-09-06T06:06:44.441Z,19.90
2018-09-06T06:11:47.527Z,20.30
2018-09-06T06:16:50.561Z,20.50
2018-09-06T06:21:53.820Z,20.80
2018-09-06T06:26:56.836Z,21.20
2018-09-06T06:31:59.941Z,21.10
2018-09-06T06:37:04.569Z,21.20
2018-09-06T06:42:07.764Z,21.30
2018-09-06T06:47:10.756Z,21.70
2018-09-06T06:52:14.053Z,21.90
2018-09-06T06:57:17.036Z,21.90
2018-09-06T07:02:20.199Z,22.10
2018-09-06T07:07:23.391Z,21.60
2018-09-06T07:12:26.726Z,21.10
2018-09-06T07:17:30.025Z,21.00
2018-09-06T07:22:33.021Z,20.70
2018-09-06T07:27:35.996Z,20.70
2018-09-06T07:38:11.737Z,20.70
2018-09-06T07:43:15.072Z,20.80
2018-09-06T07:48:18.377Z,20.80
2018-09-06T07:53:21.522Z,20.70
2018-09-06T07:58:24.711Z,20.80
2018-09-06T08:03:27.866Z,20.80
2018-09-06T08:08:30.909Z,20.80
2018-09-06T08:13:34.218Z,21.30
2018-09-06T08:18:37.392Z,21.80
2018-09-06T08:23:40.659Z,22.30
2018-09-06T08:28:43.806Z,22.90
2018-09-06T08:33:47.267Z,23.40
2018-09-06T08:38:50.529Z,23.10
2018-09-06T08:43:53.802Z,22.90
2018-09-06T08:48:56.984Z,23.60
2018-09-06T08:54:01.639Z,23.90
2018-09-06T08:59:05.257Z,23.70
2018-09-06T09:04:08.869Z,24.00
2018-09-06T09:09:13.749Z,24.50
2018-09-06T09:14:16.842Z,24.50
2018-09-06T09:19:19.915Z,24.40
2018-09-06T09:24:23.185Z,24.90
2018-09-06T09:29:26.307Z,25.40
2018-09-06T09:34:29.486Z,25.50
2018-09-06T09:39:32.744Z,25.80
2018-09-06T09:44:35.845Z,25.40
2018-09-06T09:49:38.958Z,24.60
2018-09-06T09:54:42.031Z,24.40
2018-09-06T09:59:45.249Z,24.40
2018-09-06T10:04:54.401Z,24.50
2018-09-06T10:09:57.511Z,24.80
2018-09-06T10:15:03.325Z,24.50
2018-09-06T10:20:06.791Z,23.90
2018-09-06T10:25:09.887Z,23.80
2018-09-06T10:30:13.250Z,23.70
2018-09-06T10:35:16.427Z,23.60
2018-09-06T10:40:19.588Z,23.80
2018-09-06T10:45:22.815Z,24.00
2018-09-06T10:50:25.953Z,24.20
2018-09-06T10:55:29.182Z,24.10
2018-09-06T11:00:32.328Z,24.10
2018-09-06T11:05:35.983Z,24.50
2018-09-06T11:10:39.198Z,24.60
2018-09-06T11:15:42.287Z,24.70
2018-09-06T11:20:45.371Z,24.90
2018-09-06T11:25:48.486Z,24.80
2018-09-06T11:30:51.564Z,25.30
2018-09-06T11:35:54.908Z,25.80
2018-09-06T11:40:58.182Z,25.70
2018-09-06T11:46:03.310Z,26.40
2018-09-06T11:51:07.580Z,26.50
2018-09-06T11:56:10.687Z,26.20
2018-09-06T12:01:13.889Z,25.80
2018-09-06T12:06:17.125Z,26.00
2018-09-06T12:11:20.202Z,26.20
2018-09-06T12:16:23.487Z,26.30
2018-09-06T12:21:26.798Z,26.20
2018-09-06T12:26:29.986Z,26.30
2018-09-06T12:31:33.167Z,26.40
2018-09-06T12:36:36.436Z,26.50
2018-09-06T12:41:40.479Z,26.60
2018-09-06T12:46:43.800Z,26.40
2018-09-06T12:51:47.268Z,26.80
2018-09-06T12:56:50.305Z,26.80
2018-09-06T13:01:53.402Z,26.90
2018-09-06T13:06:56.701Z,27.00
2018-09-06T13:11:59.968Z,27.10
2018-09-06T13:17:04.672Z,27.20
2018-09-06T13:22:08.200Z,26.90
2018-09-06T13:27:11.675Z,26.60
2018-09-06T13:32:15.038Z,26.40
2018-09-06T13:37:18.196Z,26.30
2018-09-06T13:42:21.361Z,26.20
2018-09-06T13:47:24.523Z,26.20
2018-09-06T13:52:27.837Z,26.00
2018-09-06T13:57:30.914Z,25.90
2018-09-06T14:02:33.958Z,25.70
2018-09-06T14:07:37.019Z,25.40
2018-09-06T14:12:40.139Z,24.50
2018-09-06T14:17:43.248Z,24.40
2018-09-06T14:22:46.506Z,24.50
2018-09-06T14:27:49.613Z,24.40
2018-09-06T14:32:53.033Z,24.30
2018-09-06T14:37:56.342Z,24.30
2018-09-06T14:42:59.619Z,24.30
2018-09-06T14:48:04.765Z,24.10
2018-09-06T14:53:07.965Z,24.10
2018-09-06T14:58:11.230Z,24.60
2018-09-06T15:03:14.659Z,24.50
2018-09-06T15:08:17.785Z,24.00
2018-09-06T15:13:21.281Z,23.90
2018-09-06T15:18:24.442Z,24.00
2018-09-06T15:23:27.786Z,23.70
2018-09-06T15:28:30.892Z,23.80
2018-09-06T15:33:33.972Z,23.80
2018-09-06T15:38:38.167Z,24.00
2018-09-06T15:43:41.670Z,24.20
2018-09-06T15:48:44.782Z,24.30
2018-09-06T15:53:47.889Z,24.10
2018-09-06T15:58:51.012Z,24.00
2018-09-06T16:03:54.196Z,23.90
2018-09-06T16:08:57.268Z,23.90
2018-09-06T16:14:00.500Z,23.90
2018-09-06T16:19:05.681Z,23.80
2018-09-06T16:24:08.878Z,23.80
2018-09-06T16:29:12.022Z,23.70
2018-09-06T16:34:15.168Z,23.60
2018-09-06T16:39:18.297Z,23.70
2018-09-06T16:44:21.586Z,23.60
2018-09-06T16:49:24.827Z,23.50
2018-09-06T16:54:27.934Z,23.40
2018-09-06T16:59:31.130Z,23.20
2018-09-06T17:04:34.443Z,23.10
2018-09-06T17:09:38.040Z,23.00
2018-09-06T17:14:41.627Z,22.90
2018-09-06T17:19:44.951Z,22.70
2018-09-06T17:24:48.037Z,22.60
2018-09-06T17:29:51.388Z,22.40
2018-09-06T17:34:56.028Z,22.40
2018-09-06T17:40:00.278Z,22.40
2018-09-06T17:45:05.178Z,22.30
2018-09-06T17:50:08.234Z,22.30
2018-09-06T17:55:11.486Z,22.30
2018-09-06T18:00:14.709Z,22.30
2018-09-06T18:05:18.068Z,22.20
2018-09-06T18:10:21.156Z,22.10
2018-09-06T18:15:24.314Z,22.00
2018-09-06T18:20:27.688Z,21.80
2018-09-06T18:25:31.046Z,21.50
2018-09-06T18:30:34.265Z,21.30
2018-09-06T18:35:37.399Z,21.10
2018-09-06T18:40:40.526Z,21.00
2018-09-06T18:45:43.624Z,20.80
2018-09-06T18:50:47.318Z,20.70
2018-09-06T18:55:50.553Z,20.60
2018-09-06T19:00:53.679Z,20.50
2018-09-06T19:05:56.752Z,20.50
2018-09-06T19:11:00.187Z,20.50
2018-09-06T19:16:03.473Z,20.40
2018-09-06T19:21:07.111Z,20.40
2018-09-06T19:26:10.291Z,20.40
2018-09-06T19:31:14.031Z,20.30
2018-09-06T19:36:17.114Z,20.20
2018-09-06T19:41:20.258Z,20.10
2018-09-06T19:46:23.433Z,20.20
2018-09-06T19:51:26.645Z,20.10
2018-09-06T19:56:29.745Z,20.00
2018-09-06T20:01:33.200Z,20.00
2018-09-06T20:06:36.502Z,20.00
2018-09-06T20:11:39.870Z,19.90
2018-09-06T20:16:43.012Z,19.90
2018-09-06T20:21:46.152Z,19.90
2018-09-06T20:26:49.640Z,19.90
2018-09-06T20:31:52.711Z,19.90
2018-09-06T20:36:55.841Z,19.90
2018-09-06T20:41:59.010Z,19.90
2018-09-06T20:52:12.325Z,19.80
2018-09-06T20:57:15.576Z,19.70
2018-09-06T21:02:21.078Z,19.80
2018-09-06T21:07:24.255Z,19.70
2018-09-06T21:12:27.321Z,19.70
2018-09-06T21:17:30.430Z,19.60
2018-09-06T21:22:33.533Z,19.60
2018-09-06T21:27:36.719Z,19.60
2018-09-06T21:32:40.062Z,19.60
2018-09-06T21:37:43.873Z,19.60
2018-09-06T21:42:46.943Z,19.70
2018-09-06T21:47:50.020Z,19.60
2018-09-06T21:52:53.046Z,19.60
2018-09-06T21:57:56.179Z,19.50
2018-09-06T22:03:05.197Z,19.50
2018-09-06T22:08:08.322Z,19.50
2018-09-06T22:13:11.565Z,19.40
2018-09-06T22:18:14.674Z,19.30
2018-09-06T22:23:18.000Z,19.30
2018-09-06T22:28:21.107Z,19.20
2018-09-06T22:33:24.410Z,19.10
2018-09-06T22:38:27.727Z,19.00
2018-09-06T22:43:31.221Z,18.90
2018-09-06T22:48:34.411Z,18.90
2018-09-06T22:53:37.608Z,18.80
2018-09-06T22:58:40.715Z,18.70
2018-09-06T23:03:44.421Z,18.60
2018-09-06T23:08:47.711Z,18.60
2018-09-06T23:13:50.995Z,18.60
2018-09-06T23:18:54.099Z,18.40
2018-09-06T23:23:57.311Z,18.50
2018-09-06T23:29:00.458Z,18.50
2018-09-06T23:34:05.431Z,18.60
2018-09-06T23:39:08.700Z,18.60
2018-09-06T23:44:11.887Z,18.60
2018-09-06T23:49:14.995Z,18.50
2018-09-06T23:54:18.435Z,18.50
2018-09-06T23:59:21.551Z,18.30
